sensor_id;sensor_type;location;lat;lon;timestamp;temperature;humidity
10968;DHT22;5536;49.602;10.980;2023-04-01T00:02:12;9.20;99.90
10968;DHT22;5536;49.602;10.980;2023-04-01T00:04:41;9.20;99.90
10968;DHT22;5536;49.602;10.980;2023-04-01T00:07:09;9.20;99.90
10968;DHT22;5536;49.602;10.980;2023-04-01T00:09:36;9.20;99.90
10968;DHT22;5536;49.602;10.980;2023-04-01T00:12:04;9.30;99.90
10968;DHT22;5536;49.602;10.980;2023-04-01T00:14:31;9.30;99.90
10968;DHT22;5536;49.602;10.980;2023-04-01T00:16:58;9.40;99.90
10968;DHT22;5536;49.602;10.980;2023-04-01T00:19:25;9.50;99.90
10968;DHT22;5536;49.602;10.980;2023-04-01T00:21:54;9.50;99.90
10968;DHT22;5536;49.602;10.980;2023-04-01T00:24:21;9.60;99.90
10968;DHT22;5536;49.602;10.980;2023-04-01T00:26:48;9.60;99.90
10968;DHT22;5536;49.602;10.980;2023-04-01T00:29:15;9.60;99.90
10968;DHT22;5536;49.602;10.980;2023-04-01T00:31:42;9.60;99.90
10968;DHT22;5536;49.602;10.980;2023-04-01T00:34:10;9.70;99.90
10968;DHT22;5536;49.602;10.980;2023-04-01T00:36:37;9.70;99.90
10968;DHT22;5536;49.602;10.980;2023-04-01T00:39:05;9.80;99.90
10968;DHT22;5536;49.602;10.980;2023-04-01T00:41:32;9.80;99.90
10968;DHT22;5536;49.602;10.980;2023-04-01T00:44:16;9.90;99.90
10968;DHT22;5536;49.602;10.980;2023-04-01T00:46:43;9.80;99.90
10968;DHT22;5536;49.602;10.980;2023-04-01T00:49:10;9.90;99.90
10968;DHT22;5536;49.602;10.980;2023-04-01T00:51:39;10.00;99.90
10968;DHT22;5536;49.602;10.980;2023-04-01T00:54:09;10.00;99.90
10968;DHT22;5536;49.602;10.980;2023-04-01T00:56:38;10.00;99.90
10968;DHT22;5536;49.602;10.980;2023-04-01T00:59:11;10.10;99.90
10968;DHT22;5536;49.602;10.980;2023-04-01T01:01:40;10.10;99.90
10968;DHT22;5536;49.602;10.980;2023-04-01T01:04:24;10.10;99.90
10968;DHT22;5536;49.602;10.980;2023-04-01T01:06:57;10.00;99.90
10968;DHT22;5536;49.602;10.980;2023-04-01T01:09:34;10.10;99.90
10968;DHT22;5536;49.602;10.980;2023-04-01T01:12:10;10.00;99.90
10968;DHT22;5536;49.602;10.980;2023-04-01T01:14:47;10.10;99.90
10968;DHT22;5536;49.602;10.980;2023-04-01T01:17:22;10.10;99.90
10968;DHT22;5536;49.602;10.980;2023-04-01T01:20:03;10.10;99.90
10968;DHT22;5536;49.602;10.980;2023-04-01T01:22:52;10.00;99.90
10968;DHT22;5536;49.602;10.980;2023-04-01T01:25:38;10.00;99.90
10968;DHT22;5536;49.602;10.980;2023-04-01T01:28:21;10.00;99.90
10968;DHT22;5536;49.602;10.980;2023-04-01T01:30:57;10.00;99.90
10968;DHT22;5536;49.602;10.980;2023-04-01T01:33:41;10.00;99.90
10968;DHT22;5536;49.602;10.980;2023-04-01T01:36:13;10.00;99.90
10968;DHT22;5536;49.602;10.980;2023-04-01T01:38:42;10.00;99.90
10968;DHT22;5536;49.602;10.980;2023-04-01T01:41:11;10.00;99.90
10968;DHT22;5536;49.602;10.980;2023-04-01T01:43:42;10.00;99.90
10968;DHT22;5536;49.602;10.980;2023-04-01T01:46:11;10.00;99.90
10968;DHT22;5536;49.602;10.980;2023-04-01T01:48:41;10.00;99.90
10968;DHT22;5536;49.602;10.980;2023-04-01T01:51:09;10.00;99.90
10968;DHT22;5536;49.602;10.980;2023-04-01T01:53:38;10.00;99.90
10968;DHT22;5536;49.602;10.980;2023-04-01T01:56:06;10.00;99.90
10968;DHT22;5536;49.602;10.980;2023-04-01T01:58:35;10.00;99.90
10968;DHT22;5536;49.602;10.980;2023-04-01T02:01:07;9.90;99.90
10968;DHT22;5536;49.602;10.980;2023-04-01T02:03:39;9.90;99.90
10968;DHT22;5536;49.602;10.980;2023-04-01T02:06:09;9.90;99.90
10968;DHT22;5536;49.602;10.980;2023-04-01T02:08:41;9.80;99.90
10968;DHT22;5536;49.602;10.980;2023-04-01T02:11:12;9.90;99.90
10968;DHT22;5536;49.602;10.980;2023-04-01T02:13:41;10.00;99.90
10968;DHT22;5536;49.602;10.980;2023-04-01T02:16:13;9.90;99.90
10968;DHT22;5536;49.602;10.980;2023-04-01T02:18:42;9.90;99.90
10968;DHT22;5536;49.602;10.980;2023-04-01T02:21:11;10.00;99.90
10968;DHT22;5536;49.602;10.980;2023-04-01T02:23:40;10.00;99.90
10968;DHT22;5536;49.602;10.980;2023-04-01T02:26:10;9.90;99.90
10968;DHT22;5536;49.602;10.980;2023-04-01T02:28:38;9.90;99.90
10968;DHT22;5536;49.602;10.980;2023-04-01T02:31:08;10.00;99.90
10968;DHT22;5536;49.602;10.980;2023-04-01T02:33:38;10.00;99.90
10968;DHT22;5536;49.602;10.980;2023-04-01T02:36:07;9.90;99.90
10968;DHT22;5536;49.602;10.980;2023-04-01T02:38:37;9.90;99.90
10968;DHT22;5536;49.602;10.980;2023-04-01T02:41:05;10.00;99.90
10968;DHT22;5536;49.602;10.980;2023-04-01T02:43:33;10.00;99.90
10968;DHT22;5536;49.602;10.980;2023-04-01T02:46:00;10.00;99.90
10968;DHT22;5536;49.602;10.980;2023-04-01T02:48:27;9.90;99.90
10968;DHT22;5536;49.602;10.980;2023-04-01T02:50:55;10.00;99.90
10968;DHT22;5536;49.602;10.980;2023-04-01T02:53:22;9.90;99.90
10968;DHT22;5536;49.602;10.980;2023-04-01T02:55:49;10.00;99.90
10968;DHT22;5536;49.602;10.980;2023-04-01T02:58:19;10.00;99.90
10968;DHT22;5536;49.602;10.980;2023-04-01T03:00:46;9.90;99.90
10968;DHT22;5536;49.602;10.980;2023-04-01T03:03:13;10.00;99.90
10968;DHT22;5536;49.602;10.980;2023-04-01T03:05:40;10.00;99.90
10968;DHT22;5536;49.602;10.980;2023-04-01T03:08:07;10.00;99.90
10968;DHT22;5536;49.602;10.980;2023-04-01T03:10:34;10.00;99.90
10968;DHT22;5536;49.602;10.980;2023-04-01T03:13:01;9.90;99.90
10968;DHT22;5536;49.602;10.980;2023-04-01T03:15:30;9.90;99.90
10968;DHT22;5536;49.602;10.980;2023-04-01T03:17:57;9.90;99.90
10968;DHT22;5536;49.602;10.980;2023-04-01T03:20:24;9.90;99.90
10968;DHT22;5536;49.602;10.980;2023-04-01T03:22:51;9.90;99.90
10968;DHT22;5536;49.602;10.980;2023-04-01T03:25:18;9.90;99.90
10968;DHT22;5536;49.602;10.980;2023-04-01T03:27:45;9.90;99.90
10968;DHT22;5536;49.602;10.980;2023-04-01T03:30:12;9.90;99.90
10968;DHT22;5536;49.602;10.980;2023-04-01T03:32:40;9.90;99.90
10968;DHT22;5536;49.602;10.980;2023-04-01T03:35:08;9.90;99.90
10968;DHT22;5536;49.602;10.980;2023-04-01T03:37:36;9.80;99.90
10968;DHT22;5536;49.602;10.980;2023-04-01T03:40:04;9.90;99.90
10968;DHT22;5536;49.602;10.980;2023-04-01T03:42:31;9.80;99.90
10968;DHT22;5536;49.602;10.980;2023-04-01T03:44:58;9.90;99.90
10968;DHT22;5536;49.602;10.980;2023-04-01T03:47:25;9.90;99.90
10968;DHT22;5536;49.602;10.980;2023-04-01T03:49:54;9.90;99.90
10968;DHT22;5536;49.602;10.980;2023-04-01T03:52:21;9.90;99.90
10968;DHT22;5536;49.602;10.980;2023-04-01T03:54:48;9.90;99.90
10968;DHT22;5536;49.602;10.980;2023-04-01T03:57:15;9.90;99.90
10968;DHT22;5536;49.602;10.980;2023-04-01T03:59:42;9.90;99.90
10968;DHT22;5536;49.602;10.980;2023-04-01T04:02:10;9.80;99.90
10968;DHT22;5536;49.602;10.980;2023-04-01T04:04:37;9.90;99.90
10968;DHT22;5536;49.602;10.980;2023-04-01T04:07:05;9.80;99.90
10968;DHT22;5536;49.602;10.980;2023-04-01T04:09:32;9.80;99.90
10968;DHT22;5536;49.602;10.980;2023-04-01T04:12:00;9.70;99.90
10968;DHT22;5536;49.602;10.980;2023-04-01T04:14:27;9.80;99.90
10968;DHT22;5536;49.602;10.980;2023-04-01T04:16:54;9.80;99.90
10968;DHT22;5536;49.602;10.980;2023-04-01T04:19:21;9.80;99.90
10968;DHT22;5536;49.602;10.980;2023-04-01T04:21:50;9.80;99.90
10968;DHT22;5536;49.602;10.980;2023-04-01T04:24:18;9.80;99.90
10968;DHT22;5536;49.602;10.980;2023-04-01T04:26:45;9.80;99.90
10968;DHT22;5536;49.602;10.980;2023-04-01T04:29:12;9.80;99.90
10968;DHT22;5536;49.602;10.980;2023-04-01T04:31:39;9.80;99.90
10968;DHT22;5536;49.602;10.980;2023-04-01T04:34:06;9.80;99.90
10968;DHT22;5536;49.602;10.980;2023-04-01T04:36:33;9.80;99.90
10968;DHT22;5536;49.602;10.980;2023-04-01T04:39:00;9.80;99.90
10968;DHT22;5536;49.602;10.980;2023-04-01T04:41:30;9.70;99.90
10968;DHT22;5536;49.602;10.980;2023-04-01T04:43:57;9.70;99.90
10968;DHT22;5536;49.602;10.980;2023-04-01T04:46:24;9.60;99.90
10968;DHT22;5536;49.602;10.980;2023-04-01T04:48:52;9.60;99.90
10968;DHT22;5536;49.602;10.980;2023-04-01T04:51:19;9.60;99.90
10968;DHT22;5536;49.602;10.980;2023-04-01T04:53:47;9.60;99.90
10968;DHT22;5536;49.602;10.980;2023-04-01T04:56:17;9.50;99.90
10968;DHT22;5536;49.602;10.980;2023-04-01T04:58:46;9.50;99.90
10968;DHT22;5536;49.602;10.980;2023-04-01T05:01:16;9.40;99.90
10968;DHT22;5536;49.602;10.980;2023-04-01T05:03:43;9.40;99.90
10968;DHT22;5536;49.602;10.980;2023-04-01T05:06:12;9.40;99.90
10968;DHT22;5536;49.602;10.980;2023-04-01T05:08:40;9.40;99.90
10968;DHT22;5536;49.602;10.980;2023-04-01T05:11:10;9.40;99.90
10968;DHT22;5536;49.602;10.980;2023-04-01T05:13:38;9.40;99.90
10968;DHT22;5536;49.602;10.980;2023-04-01T05:16:09;9.40;99.90
10968;DHT22;5536;49.602;10.980;2023-04-01T05:18:37;9.40;99.90
10968;DHT22;5536;49.602;10.980;2023-04-01T05:21:06;9.50;99.90
10968;DHT22;5536;49.602;10.980;2023-04-01T05:23:33;9.40;99.90
10968;DHT22;5536;49.602;10.980;2023-04-01T05:26:03;9.50;99.90
10968;DHT22;5536;49.602;10.980;2023-04-01T05:28:30;9.50;99.90
10968;DHT22;5536;49.602;10.980;2023-04-01T05:30:59;9.50;99.90
10968;DHT22;5536;49.602;10.980;2023-04-01T05:33:28;9.50;99.90
10968;DHT22;5536;49.602;10.980;2023-04-01T05:35:56;9.50;99.90
10968;DHT22;5536;49.602;10.980;2023-04-01T05:38:23;9.50;99.90
10968;DHT22;5536;49.602;10.980;2023-04-01T05:40:50;9.50;99.90
10968;DHT22;5536;49.602;10.980;2023-04-01T05:43:17;9.50;99.90
10968;DHT22;5536;49.602;10.980;2023-04-01T05:45:45;9.60;99.90
10968;DHT22;5536;49.602;10.980;2023-04-01T05:48:12;9.60;99.90
10968;DHT22;5536;49.602;10.980;2023-04-01T05:50:41;9.50;99.90
10968;DHT22;5536;49.602;10.980;2023-04-01T05:53:08;9.50;99.90
10968;DHT22;5536;49.602;10.980;2023-04-01T05:55:35;9.50;99.90
10968;DHT22;5536;49.602;10.980;2023-04-01T05:58:02;9.50;99.90
10968;DHT22;5536;49.602;10.980;2023-04-01T06:00:30;9.60;99.90
10968;DHT22;5536;49.602;10.980;2023-04-01T06:02:58;9.60;99.90
10968;DHT22;5536;49.602;10.980;2023-04-01T06:05:28;9.60;99.90
10968;DHT22;5536;49.602;10.980;2023-04-01T06:07:59;9.50;99.90
10968;DHT22;5536;49.602;10.980;2023-04-01T06:10:44;9.60;99.90
10968;DHT22;5536;49.602;10.980;2023-04-01T06:13:20;9.60;99.90
10968;DHT22;5536;49.602;10.980;2023-04-01T06:15:56;9.60;99.90
10968;DHT22;5536;49.602;10.980;2023-04-01T06:18:53;9.70;99.90
10968;DHT22;5536;49.602;10.980;2023-04-01T06:21:45;9.70;99.90
10968;DHT22;5536;49.602;10.980;2023-04-01T06:24:33;9.80;99.90
10968;DHT22;5536;49.602;10.980;2023-04-01T06:27:10;9.70;99.90
10968;DHT22;5536;49.602;10.980;2023-04-01T06:30:00;9.80;99.90
10968;DHT22;5536;49.602;10.980;2023-04-01T06:32:50;9.90;99.90
10968;DHT22;5536;49.602;10.980;2023-04-01T06:35:31;9.90;99.90
10968;DHT22;5536;49.602;10.980;2023-04-01T06:38:14;10.00;99.90
10968;DHT22;5536;49.602;10.980;2023-04-01T06:40:55;10.00;99.90
10968;DHT22;5536;49.602;10.980;2023-04-01T06:43:30;10.00;99.90
10968;DHT22;5536;49.602;10.980;2023-04-01T06:46:06;10.10;99.90
10968;DHT22;5536;49.602;10.980;2023-04-01T06:48:53;10.10;99.90
10968;DHT22;5536;49.602;10.980;2023-04-01T06:51:33;10.20;99.90
10968;DHT22;5536;49.602;10.980;2023-04-01T06:54:06;10.20;99.90
10968;DHT22;5536;49.602;10.980;2023-04-01T06:56:39;10.20;99.90
10968;DHT22;5536;49.602;10.980;2023-04-01T06:59:12;10.30;99.90
10968;DHT22;5536;49.602;10.980;2023-04-01T07:01:44;10.30;99.90
10968;DHT22;5536;49.602;10.980;2023-04-01T07:04:14;10.30;99.90
10968;DHT22;5536;49.602;10.980;2023-04-01T07:06:47;10.40;99.90
10968;DHT22;5536;49.602;10.980;2023-04-01T07:09:19;10.40;99.90
10968;DHT22;5536;49.602;10.980;2023-04-01T07:11:47;10.30;99.90
10968;DHT22;5536;49.602;10.980;2023-04-01T07:14:20;10.30;99.90
10968;DHT22;5536;49.602;10.980;2023-04-01T07:16:51;10.40;99.90
10968;DHT22;5536;49.602;10.980;2023-04-01T07:19:25;10.40;99.90
10968;DHT22;5536;49.602;10.980;2023-04-01T07:21:58;10.50;99.90
10968;DHT22;5536;49.602;10.980;2023-04-01T07:24:31;10.60;99.90
10968;DHT22;5536;49.602;10.980;2023-04-01T07:27:01;10.60;99.90
10968;DHT22;5536;49.602;10.980;2023-04-01T07:29:28;10.60;99.90
10968;DHT22;5536;49.602;10.980;2023-04-01T07:34:56;10.50;99.90
10968;DHT22;5536;49.602;10.980;2023-04-01T07:37:30;10.60;99.90
10968;DHT22;5536;49.602;10.980;2023-04-01T07:40:08;10.60;99.90
10968;DHT22;5536;49.602;10.980;2023-04-01T07:42:51;10.70;99.90
10968;DHT22;5536;49.602;10.980;2023-04-01T07:45:26;10.80;99.90
10968;DHT22;5536;49.602;10.980;2023-04-01T07:48:08;10.80;99.90
10968;DHT22;5536;49.602;10.980;2023-04-01T07:50:42;10.80;99.90
10968;DHT22;5536;49.602;10.980;2023-04-01T07:53:16;10.80;99.90
10968;DHT22;5536;49.602;10.980;2023-04-01T07:55:52;10.90;99.90
10968;DHT22;5536;49.602;10.980;2023-04-01T07:58:29;10.90;99.90
10968;DHT22;5536;49.602;10.980;2023-04-01T08:01:03;10.80;99.90
10968;DHT22;5536;49.602;10.980;2023-04-01T08:03:38;10.90;99.90
10968;DHT22;5536;49.602;10.980;2023-04-01T08:06:13;10.90;99.90
10968;DHT22;5536;49.602;10.980;2023-04-01T08:08:50;10.80;99.90
10968;DHT22;5536;49.602;10.980;2023-04-01T08:11:32;10.90;99.90
10968;DHT22;5536;49.602;10.980;2023-04-01T08:14:08;10.90;99.90
10968;DHT22;5536;49.602;10.980;2023-04-01T08:16:43;10.90;99.90
10968;DHT22;5536;49.602;10.980;2023-04-01T08:19:21;10.90;99.90
10968;DHT22;5536;49.602;10.980;2023-04-01T08:21:55;10.90;99.90
10968;DHT22;5536;49.602;10.980;2023-04-01T08:24:27;10.90;99.90
10968;DHT22;5536;49.602;10.980;2023-04-01T08:26:59;10.90;99.90
10968;DHT22;5536;49.602;10.980;2023-04-01T08:29:34;10.80;99.90
10968;DHT22;5536;49.602;10.980;2023-04-01T08:32:06;10.80;99.90
10968;DHT22;5536;49.602;10.980;2023-04-01T08:34:37;10.90;99.90
10968;DHT22;5536;49.602;10.980;2023-04-01T08:37:10;10.90;99.90
10968;DHT22;5536;49.602;10.980;2023-04-01T08:39:41;10.90;99.90
10968;DHT22;5536;49.602;10.980;2023-04-01T08:42:35;10.90;99.90
10968;DHT22;5536;49.602;10.980;2023-04-01T08:45:31;11.00;99.90
10968;DHT22;5536;49.602;10.980;2023-04-01T08:48:18;10.90;99.90
10968;DHT22;5536;49.602;10.980;2023-04-01T08:54:10;11.10;99.90
10968;DHT22;5536;49.602;10.980;2023-04-01T08:56:46;11.10;99.90
10968;DHT22;5536;49.602;10.980;2023-04-01T08:59:40;11.20;99.90
10968;DHT22;5536;49.602;10.980;2023-04-01T09:02:38;11.10;99.90
10968;DHT22;5536;49.602;10.980;2023-04-01T09:08:11;11.20;99.90
10968;DHT22;5536;49.602;10.980;2023-04-01T09:11:06;11.20;99.90
10968;DHT22;5536;49.602;10.980;2023-04-01T09:17:17;11.30;99.90
10968;DHT22;5536;49.602;10.980;2023-04-01T09:19:59;11.40;99.90
10968;DHT22;5536;49.602;10.980;2023-04-01T09:22:42;11.20;99.90
10968;DHT22;5536;49.602;10.980;2023-04-01T09:25:38;11.20;99.90
10968;DHT22;5536;49.602;10.980;2023-04-01T09:28:18;11.10;99.90
10968;DHT22;5536;49.602;10.980;2023-04-01T09:31:01;11.00;99.90
10968;DHT22;5536;49.602;10.980;2023-04-01T09:33:58;11.10;99.90
10968;DHT22;5536;49.602;10.980;2023-04-01T09:36:49;11.10;99.90
10968;DHT22;5536;49.602;10.980;2023-04-01T09:39:40;11.10;99.90
10968;DHT22;5536;49.602;10.980;2023-04-01T09:42:25;11.10;99.90
10968;DHT22;5536;49.602;10.980;2023-04-01T09:44:59;11.20;99.90
10968;DHT22;5536;49.602;10.980;2023-04-01T09:47:43;11.30;99.90
10968;DHT22;5536;49.602;10.980;2023-04-01T09:50:21;11.30;99.90
10968;DHT22;5536;49.602;10.980;2023-04-01T09:53:04;11.20;99.90
10968;DHT22;5536;49.602;10.980;2023-04-01T09:58:45;10.90;99.90
10968;DHT22;5536;49.602;10.980;2023-04-01T10:01:45;10.90;99.90
10968;DHT22;5536;49.602;10.980;2023-04-01T10:04:46;10.80;99.90
10968;DHT22;5536;49.602;10.980;2023-04-01T10:16:33;10.50;99.90
10968;DHT22;5536;49.602;10.980;2023-04-01T10:22:37;10.50;99.90
10968;DHT22;5536;49.602;10.980;2023-04-01T10:25:23;10.60;99.90
10968;DHT22;5536;49.602;10.980;2023-04-01T10:31:19;10.60;99.90
10968;DHT22;5536;49.602;10.980;2023-04-01T10:34:14;10.70;99.90
10968;DHT22;5536;49.602;10.980;2023-04-01T10:36:55;10.60;99.90
10968;DHT22;5536;49.602;10.980;2023-04-01T10:46:22;10.40;99.90
10968;DHT22;5536;49.602;10.980;2023-04-01T10:52:22;10.20;99.90
10968;DHT22;5536;49.602;10.980;2023-04-01T11:04:35;10.30;99.90
10968;DHT22;5536;49.602;10.980;2023-04-01T11:07:34;10.20;99.90
10968;DHT22;5536;49.602;10.980;2023-04-01T11:13:31;10.10;99.90
10968;DHT22;5536;49.602;10.980;2023-04-01T11:19:36;10.20;99.90
10968;DHT22;5536;49.602;10.980;2023-04-01T11:22:26;10.20;99.90
10968;DHT22;5536;49.602;10.980;2023-04-01T11:25:11;10.10;99.90
10968;DHT22;5536;49.602;10.980;2023-04-01T11:31:00;10.30;99.90
10968;DHT22;5536;49.602;10.980;2023-04-01T11:33:36;10.30;99.90
10968;DHT22;5536;49.602;10.980;2023-04-01T11:36:25;10.40;99.90
10968;DHT22;5536;49.602;10.980;2023-04-01T11:39:31;10.50;99.90
10968;DHT22;5536;49.602;10.980;2023-04-01T11:42:20;10.50;99.90
10968;DHT22;5536;49.602;10.980;2023-04-01T11:45:01;10.50;99.90
10968;DHT22;5536;49.602;10.980;2023-04-01T11:47:52;10.60;99.90
10968;DHT22;5536;49.602;10.980;2023-04-01T11:50:29;10.50;99.90
10968;DHT22;5536;49.602;10.980;2023-04-01T11:53:10;10.50;99.90
10968;DHT22;5536;49.602;10.980;2023-04-01T11:55:51;10.50;99.90
10968;DHT22;5536;49.602;10.980;2023-04-01T11:58:35;10.40;99.90
10968;DHT22;5536;49.602;10.980;2023-04-01T12:01:17;10.30;99.90
10968;DHT22;5536;49.602;10.980;2023-04-01T12:04:22;10.40;99.90
10968;DHT22;5536;49.602;10.980;2023-04-01T12:07:01;10.40;99.90
10968;DHT22;5536;49.602;10.980;2023-04-01T12:09:37;10.40;99.90
10968;DHT22;5536;49.602;10.980;2023-04-01T12:12:17;10.50;99.90
10968;DHT22;5536;49.602;10.980;2023-04-01T12:14:53;10.50;99.90
10968;DHT22;5536;49.602;10.980;2023-04-01T12:17:30;10.60;99.90
10968;DHT22;5536;49.602;10.980;2023-04-01T12:20:34;10.50;99.90
10968;DHT22;5536;49.602;10.980;2023-04-01T12:23:12;10.60;99.90
10968;DHT22;5536;49.602;10.980;2023-04-01T12:26:10;10.50;99.90
10968;DHT22;5536;49.602;10.980;2023-04-01T12:28:48;10.50;99.90
10968;DHT22;5536;49.602;10.980;2023-04-01T12:31:26;10.50;99.90
10968;DHT22;5536;49.602;10.980;2023-04-01T12:34:23;10.50;99.90
10968;DHT22;5536;49.602;10.980;2023-04-01T12:37:03;10.40;99.90
10968;DHT22;5536;49.602;10.980;2023-04-01T12:39:57;10.50;99.90
10968;DHT22;5536;49.602;10.980;2023-04-01T12:42:41;10.50;99.90
10968;DHT22;5536;49.602;10.980;2023-04-01T12:45:28;10.40;99.90
10968;DHT22;5536;49.602;10.980;2023-04-01T12:54:13;10.40;99.90
10968;DHT22;5536;49.602;10.980;2023-04-01T12:56:49;10.40;99.90
10968;DHT22;5536;49.602;10.980;2023-04-01T13:00:00;10.40;99.90
10968;DHT22;5536;49.602;10.980;2023-04-01T13:02:44;10.30;99.90
10968;DHT22;5536;49.602;10.980;2023-04-01T13:05:31;10.40;99.90
10968;DHT22;5536;49.602;10.980;2023-04-01T13:08:15;10.50;99.90
10968;DHT22;5536;49.602;10.980;2023-04-01T13:10:59;10.50;99.90
10968;DHT22;5536;49.602;10.980;2023-04-01T13:13:50;10.50;99.90
10968;DHT22;5536;49.602;10.980;2023-04-01T13:16:23;10.50;99.90
10968;DHT22;5536;49.602;10.980;2023-04-01T13:18:58;10.50;99.90
10968;DHT22;5536;49.602;10.980;2023-04-01T13:21:34;10.50;99.90
10968;DHT22;5536;49.602;10.980;2023-04-01T13:24:09;10.40;99.90
10968;DHT22;5536;49.602;10.980;2023-04-01T13:26:47;10.40;99.90
10968;DHT22;5536;49.602;10.980;2023-04-01T13:29:20;10.40;99.90
10968;DHT22;5536;49.602;10.980;2023-04-01T13:45:16;10.30;99.90
10968;DHT22;5536;49.602;10.980;2023-04-01T13:48:08;10.40;99.90
10968;DHT22;5536;49.602;10.980;2023-04-01T13:54:26;10.50;99.90
10968;DHT22;5536;49.602;10.980;2023-04-01T13:57:14;10.50;99.90
10968;DHT22;5536;49.602;10.980;2023-04-01T14:00:22;10.50;99.90
10968;DHT22;5536;49.602;10.980;2023-04-01T14:05:51;10.40;99.90
10968;DHT22;5536;49.602;10.980;2023-04-01T14:08:29;10.50;99.90
10968;DHT22;5536;49.602;10.980;2023-04-01T14:11:10;10.50;99.90
10968;DHT22;5536;49.602;10.980;2023-04-01T14:13:45;10.60;99.90
10968;DHT22;5536;49.602;10.980;2023-04-01T14:19:17;10.70;99.90
10968;DHT22;5536;49.602;10.980;2023-04-01T14:21:58;10.50;99.90
10968;DHT22;5536;49.602;10.980;2023-04-01T14:24:43;10.60;99.90
10968;DHT22;5536;49.602;10.980;2023-04-01T14:27:37;10.60;99.90
10968;DHT22;5536;49.602;10.980;2023-04-01T14:33:31;10.60;99.90
10968;DHT22;5536;49.602;10.980;2023-04-01T14:36:26;10.60;99.90
10968;DHT22;5536;49.602;10.980;2023-04-01T14:39:06;10.60;99.90
10968;DHT22;5536;49.602;10.980;2023-04-01T14:41:45;10.70;99.90
10968;DHT22;5536;49.602;10.980;2023-04-01T14:44:41;10.60;99.90
10968;DHT22;5536;49.602;10.980;2023-04-01T14:47:39;10.50;99.90
10968;DHT22;5536;49.602;10.980;2023-04-01T14:50:13;10.50;99.90
10968;DHT22;5536;49.602;10.980;2023-04-01T14:52:46;10.40;99.90
10968;DHT22;5536;49.602;10.980;2023-04-01T14:55:23;10.40;99.90
10968;DHT22;5536;49.602;10.980;2023-04-01T14:58:04;10.40;99.90
10968;DHT22;5536;49.602;10.980;2023-04-01T15:00:47;10.40;99.90
10968;DHT22;5536;49.602;10.980;2023-04-01T15:03:20;10.40;99.90
10968;DHT22;5536;49.602;10.980;2023-04-01T15:05:54;10.30;99.90
10968;DHT22;5536;49.602;10.980;2023-04-01T15:08:25;10.30;99.90
10968;DHT22;5536;49.602;10.980;2023-04-01T15:17:18;10.30;99.90
10968;DHT22;5536;49.602;10.980;2023-04-01T15:19:59;10.20;99.90
10968;DHT22;5536;49.602;10.980;2023-04-01T15:22:44;10.30;99.90
10968;DHT22;5536;49.602;10.980;2023-04-01T15:25:30;10.30;99.90
10968;DHT22;5536;49.602;10.980;2023-04-01T15:28:05;10.30;99.90
10968;DHT22;5536;49.602;10.980;2023-04-01T15:30:38;10.40;99.90
10968;DHT22;5536;49.602;10.980;2023-04-01T15:33:28;10.30;99.90
10968;DHT22;5536;49.602;10.980;2023-04-01T15:36:07;10.40;99.90
10968;DHT22;5536;49.602;10.980;2023-04-01T15:38:45;10.40;99.90
10968;DHT22;5536;49.602;10.980;2023-04-01T15:41:16;10.40;99.90
10968;DHT22;5536;49.602;10.980;2023-04-01T15:43:48;10.40;99.90
10968;DHT22;5536;49.602;10.980;2023-04-01T15:46:36;10.40;99.90
10968;DHT22;5536;49.602;10.980;2023-04-01T15:49:22;10.40;99.90
10968;DHT22;5536;49.602;10.980;2023-04-01T15:52:08;10.40;99.90
10968;DHT22;5536;49.602;10.980;2023-04-01T15:55:07;10.40;99.90
10968;DHT22;5536;49.602;10.980;2023-04-01T15:57:47;10.40;99.90
10968;DHT22;5536;49.602;10.980;2023-04-01T16:00:27;10.40;99.90
10968;DHT22;5536;49.602;10.980;2023-04-01T16:03:14;10.40;99.90
10968;DHT22;5536;49.602;10.980;2023-04-01T16:05:55;10.30;99.90
10968;DHT22;5536;49.602;10.980;2023-04-01T16:08:41;10.30;99.90
10968;DHT22;5536;49.602;10.980;2023-04-01T16:11:24;10.20;99.90
10968;DHT22;5536;49.602;10.980;2023-04-01T16:14:04;10.30;99.90
10968;DHT22;5536;49.602;10.980;2023-04-01T16:16:44;10.20;99.90
10968;DHT22;5536;49.602;10.980;2023-04-01T16:22:09;10.10;99.90
10968;DHT22;5536;49.602;10.980;2023-04-01T16:24:44;10.10;99.90
10968;DHT22;5536;49.602;10.980;2023-04-01T16:27:19;10.10;99.90
10968;DHT22;5536;49.602;10.980;2023-04-01T16:29:55;10.10;99.90
10968;DHT22;5536;49.602;10.980;2023-04-01T16:32:35;10.10;99.90
10968;DHT22;5536;49.602;10.980;2023-04-01T16:35:23;10.00;99.90
10968;DHT22;5536;49.602;10.980;2023-04-01T16:37:55;9.90;99.90
10968;DHT22;5536;49.602;10.980;2023-04-01T16:40:43;10.00;99.90
10968;DHT22;5536;49.602;10.980;2023-04-01T16:43:19;10.00;99.90
10968;DHT22;5536;49.602;10.980;2023-04-01T16:45:56;10.00;99.90
10968;DHT22;5536;49.602;10.980;2023-04-01T16:48:28;10.00;99.90
10968;DHT22;5536;49.602;10.980;2023-04-01T16:51:07;10.00;99.90
10968;DHT22;5536;49.602;10.980;2023-04-01T16:53:42;10.00;99.90
10968;DHT22;5536;49.602;10.980;2023-04-01T16:56:12;10.00;99.90
10968;DHT22;5536;49.602;10.980;2023-04-01T16:58:56;10.00;99.90
10968;DHT22;5536;49.602;10.980;2023-04-01T17:01:28;10.00;99.90
10968;DHT22;5536;49.602;10.980;2023-04-01T17:04:00;10.00;99.90
10968;DHT22;5536;49.602;10.980;2023-04-01T17:06:36;9.90;99.90
10968;DHT22;5536;49.602;10.980;2023-04-01T17:09:20;9.80;99.90
10968;DHT22;5536;49.602;10.980;2023-04-01T17:11:57;9.80;99.90
10968;DHT22;5536;49.602;10.980;2023-04-01T17:14:30;9.80;99.90
10968;DHT22;5536;49.602;10.980;2023-04-01T17:17:27;9.80;99.90
10968;DHT22;5536;49.602;10.980;2023-04-01T17:20:14;9.80;99.90
10968;DHT22;5536;49.602;10.980;2023-04-01T17:22:51;9.80;99.90
10968;DHT22;5536;49.602;10.980;2023-04-01T17:25:32;9.80;99.90
10968;DHT22;5536;49.602;10.980;2023-04-01T17:28:09;9.80;99.90
10968;DHT22;5536;49.602;10.980;2023-04-01T17:30:43;9.80;99.90
10968;DHT22;5536;49.602;10.980;2023-04-01T17:33:40;9.80;99.90
10968;DHT22;5536;49.602;10.980;2023-04-01T17:36:20;9.70;99.90
10968;DHT22;5536;49.602;10.980;2023-04-01T17:39:00;9.70;99.90
10968;DHT22;5536;49.602;10.980;2023-04-01T17:41:41;9.70;99.90
10968;DHT22;5536;49.602;10.980;2023-04-01T17:44:22;9.70;99.90
10968;DHT22;5536;49.602;10.980;2023-04-01T17:47:10;9.60;99.90
10968;DHT22;5536;49.602;10.980;2023-04-01T17:49:45;9.70;99.90
10968;DHT22;5536;49.602;10.980;2023-04-01T17:52:22;9.60;99.90
10968;DHT22;5536;49.602;10.980;2023-04-01T17:54:59;9.60;99.90
10968;DHT22;5536;49.602;10.980;2023-04-01T17:57:39;9.60;99.90
10968;DHT22;5536;49.602;10.980;2023-04-01T18:00:23;9.60;99.90
10968;DHT22;5536;49.602;10.980;2023-04-01T18:03:00;9.60;99.90
10968;DHT22;5536;49.602;10.980;2023-04-01T18:05:41;9.70;99.90
10968;DHT22;5536;49.602;10.980;2023-04-01T18:08:18;9.70;99.90
10968;DHT22;5536;49.602;10.980;2023-04-01T18:11:09;9.70;99.90
10968;DHT22;5536;49.602;10.980;2023-04-01T18:16:40;9.70;99.90
10968;DHT22;5536;49.602;10.980;2023-04-01T18:19:24;9.70;99.90
10968;DHT22;5536;49.602;10.980;2023-04-01T18:22:10;9.70;99.90